createdAt,value
2019-02-12T00:00:29.451Z,7.83
2019-02-12T00:02:57.318Z,9.87
2019-02-12T00:05:25.574Z,5.50
2019-02-12T00:07:55.814Z,8.37
2019-02-12T00:10:23.867Z,8.27
2019-02-12T00:12:51.624Z,8.63
2019-02-12T00:15:19.638Z,10.90
2019-02-12T00:17:47.277Z,8.33
2019-02-12T00:20:14.972Z,11.20
2019-02-12T00:22:43.114Z,9.60
2019-02-12T00:25:10.896Z,12.83
2019-02-12T00:27:38.645Z,7.33
2019-02-12T00:30:07.220Z,12.67
2019-02-12T00:32:36.068Z,9.20
2019-02-12T00:35:04.418Z,10.80
2019-02-12T00:37:32.181Z,8.90
2019-02-12T00:39:59.851Z,8.80
2019-02-12T00:42:27.528Z,9.43
2019-02-12T00:44:55.323Z,8.53
2019-02-12T00:47:23.294Z,14.03
2019-02-12T00:49:51.166Z,6.53
2019-02-12T00:52:21.196Z,8.13
2019-02-12T00:54:48.968Z,9.00
2019-02-12T00:57:18.816Z,8.07
2019-02-12T00:59:46.500Z,8.50
2019-02-12T01:02:14.551Z,7.70
2019-02-12T01:04:42.253Z,8.50
2019-02-12T01:07:09.964Z,6.87
2019-02-12T01:09:38.675Z,6.60
2019-02-12T01:12:06.273Z,6.73
2019-02-12T01:14:33.941Z,8.63
2019-02-12T01:17:01.690Z,8.07
2019-02-12T01:19:29.745Z,10.50
2019-02-12T01:21:57.487Z,9.20
2019-02-12T01:24:25.134Z,8.40
2019-02-12T01:26:52.810Z,8.13
2019-02-12T01:29:21.191Z,10.07
2019-02-12T01:31:48.890Z,8.40
2019-02-12T01:34:17.108Z,7.67
2019-02-12T01:36:44.980Z,5.43
2019-02-12T01:39:12.630Z,11.77
2019-02-12T01:41:40.500Z,4.70
2019-02-12T01:44:08.392Z,6.87
2019-02-12T01:46:36.095Z,6.80
2019-02-12T01:49:03.819Z,8.10
2019-02-12T01:51:35.051Z,12.50
2019-02-12T01:54:01.578Z,9.07
2019-02-12T01:56:31.342Z,6.97
2019-02-12T01:58:59.250Z,13.17
2019-02-12T02:01:27.043Z,12.13
2019-02-12T02:03:54.790Z,5.43
2019-02-12T02:06:23.114Z,13.97
2019-02-12T02:08:50.894Z,11.07
2019-02-12T02:11:19.295Z,7.60
2019-02-12T02:13:47.204Z,8.80
2019-02-12T02:16:14.844Z,11.00
2019-02-12T02:18:42.762Z,12.53
2019-02-12T02:21:10.836Z,6.83
2019-02-12T02:23:41.275Z,7.53
2019-02-12T02:26:08.930Z,6.10
2019-02-12T02:28:36.801Z,10.53
2019-02-12T02:31:04.634Z,8.70
2019-02-12T02:33:32.474Z,9.07
2019-02-12T02:36:00.400Z,5.00
2019-02-12T02:38:28.084Z,12.60
2019-02-12T02:40:55.875Z,9.07
2019-02-12T02:43:24.045Z,6.17
2019-02-12T02:45:51.859Z,7.30
2019-02-12T02:48:19.560Z,7.83
2019-02-12T02:50:47.349Z,7.23
2019-02-12T02:53:15.203Z,8.73
2019-02-12T02:55:43.084Z,6.03
2019-02-12T02:58:11.086Z,13.33
2019-02-12T03:00:38.677Z,5.30
2019-02-12T03:03:06.470Z,12.67
2019-02-12T03:05:34.233Z,10.00
2019-02-12T03:08:01.923Z,9.87
2019-02-12T03:10:29.674Z,7.70
2019-02-12T03:12:57.699Z,10.37
2019-02-12T03:15:25.372Z,8.80
2019-02-12T03:17:53.055Z,10.43
2019-02-12T03:20:21.313Z,5.67
2019-02-12T03:22:50.743Z,7.87
2019-02-12T03:25:18.426Z,9.27
2019-02-12T03:27:46.215Z,6.77
2019-02-12T03:30:13.951Z,6.20
2019-02-12T03:32:41.906Z,7.00
2019-02-12T03:35:09.859Z,8.40
2019-02-12T03:37:37.572Z,4.53
2019-02-12T03:40:06.418Z,11.93
2019-02-12T03:42:34.106Z,6.73
2019-02-12T03:45:01.873Z,4.60
2019-02-12T03:47:29.559Z,5.47
2019-02-12T03:49:57.595Z,10.37
2019-02-12T03:52:25.228Z,11.03
2019-02-12T03:54:52.944Z,7.33
2019-02-12T03:57:20.737Z,7.40
2019-02-12T03:59:48.461Z,8.57
2019-02-12T04:02:16.134Z,15.60
2019-02-12T04:04:44.231Z,5.83
2019-02-12T04:07:11.815Z,3.40
2019-02-12T04:09:39.470Z,5.40
2019-02-12T04:12:08.979Z,6.73
2019-02-12T04:14:36.831Z,8.97
2019-02-12T04:17:04.596Z,10.93
2019-02-12T04:19:32.619Z,6.63
2019-02-12T04:22:00.233Z,10.97
2019-02-12T04:24:27.897Z,12.40
2019-02-12T04:26:58.223Z,12.20
2019-02-12T04:29:25.875Z,12.40
2019-02-12T04:31:53.565Z,7.77
2019-02-12T04:34:21.678Z,10.73
2019-02-12T04:36:51.278Z,8.77
2019-02-12T04:39:19.027Z,9.67
2019-02-12T04:41:47.148Z,9.17
2019-02-12T04:44:14.735Z,9.93
2019-02-12T04:46:43.206Z,16.43
2019-02-12T04:49:11.355Z,8.87
2019-02-12T04:51:39.057Z,8.67
2019-02-12T04:54:08.159Z,9.13
2019-02-12T04:56:40.435Z,7.97
2019-02-12T04:59:08.284Z,8.63
2019-02-12T05:01:35.963Z,7.67
2019-02-12T05:04:03.648Z,11.37
2019-02-12T05:06:31.261Z,9.57
2019-02-12T05:09:12.321Z,7.73
2019-02-12T05:11:41.575Z,9.53
2019-02-12T05:14:11.128Z,7.83
2019-02-12T05:16:38.868Z,11.07
2019-02-12T05:19:06.530Z,10.47
2019-02-12T05:21:42.094Z,11.63
2019-02-12T05:24:09.902Z,9.43
2019-02-12T05:26:37.518Z,13.87
2019-02-12T05:29:05.481Z,13.17
2019-02-12T05:31:33.279Z,10.97
2019-02-12T05:34:02.891Z,9.07
2019-02-12T05:36:30.627Z,9.50
2019-02-12T05:38:58.369Z,10.57
2019-02-12T05:41:26.053Z,12.07
2019-02-12T05:43:53.831Z,4.53
2019-02-12T05:46:21.572Z,10.60
2019-02-12T05:48:49.463Z,10.37
2019-02-12T05:51:17.443Z,8.27
2019-02-12T05:53:45.180Z,5.63
2019-02-12T05:56:13.037Z,13.67
2019-02-12T05:58:40.743Z,12.77
2019-02-12T06:01:08.708Z,8.53
2019-02-12T06:03:36.543Z,11.50
2019-02-12T06:06:04.630Z,11.07
2019-02-12T06:08:34.884Z,12.00
2019-02-12T06:11:02.561Z,11.83
2019-02-12T06:13:33.154Z,12.03
2019-02-12T06:16:00.790Z,9.70
2019-02-12T06:18:28.763Z,11.47
2019-02-12T06:20:58.156Z,13.53
2019-02-12T06:23:25.790Z,7.40
2019-02-12T06:25:53.889Z,10.20
2019-02-12T06:28:21.740Z,10.37
2019-02-12T06:30:56.469Z,5.77
2019-02-12T06:33:24.365Z,7.63
2019-02-12T06:35:51.959Z,8.30
2019-02-12T06:38:19.546Z,5.10
2019-02-12T06:40:47.403Z,11.97
2019-02-12T06:43:15.155Z,7.27
2019-02-12T06:45:43.307Z,6.80
2019-02-12T06:48:11.351Z,5.83
2019-02-12T06:50:39.483Z,7.90
2019-02-12T06:53:12.603Z,10.57
2019-02-12T06:55:37.762Z,7.40
2019-02-12T06:58:05.411Z,12.93
2019-02-12T07:00:33.258Z,10.63
2019-02-12T07:03:58.157Z,9.93
2019-02-12T07:06:43.475Z,6.70
2019-02-12T07:09:37.320Z,7.63
2019-02-12T07:12:33.967Z,9.43
2019-02-12T07:15:42.092Z,8.63
2019-02-12T07:18:42.126Z,9.40
2019-02-12T07:21:40.218Z,6.67
2019-02-12T07:24:42.721Z,9.47
2019-02-12T07:27:46.002Z,6.73
2019-02-12T07:30:59.225Z,4.93
2019-02-12T07:33:43.907Z,10.60
2019-02-12T07:36:43.002Z,9.10
2019-02-12T07:40:13.612Z,7.90
2019-02-12T07:43:35.299Z,10.20
2019-02-12T07:46:35.655Z,7.13
2019-02-12T07:49:36.272Z,5.70
2019-02-12T07:52:40.239Z,7.53
2019-02-12T07:56:03.542Z,10.83
2019-02-12T07:59:08.287Z,9.30
2019-02-12T08:02:29.532Z,5.57
2019-02-12T08:05:39.214Z,10.60
2019-02-12T08:08:46.093Z,8.20
2019-02-12T08:11:26.844Z,10.70
2019-02-12T08:14:30.860Z,9.20
2019-02-12T08:17:57.598Z,9.77
2019-02-12T08:20:54.741Z,12.03
2019-02-12T08:23:57.398Z,11.53
2019-02-12T08:26:39.738Z,8.37
2019-02-12T08:30:01.608Z,12.00
2019-02-12T08:33:16.923Z,6.57
2019-02-12T08:36:21.972Z,10.70
2019-02-12T08:39:27.268Z,12.97
2019-02-12T08:42:19.886Z,9.17
2019-02-12T08:45:28.797Z,9.50
2019-02-12T08:48:34.580Z,10.07
2019-02-12T08:51:40.376Z,9.50
2019-02-12T08:55:01.384Z,12.17
2019-02-12T08:58:15.094Z,8.93
2019-02-12T09:01:19.575Z,7.63
2019-02-12T09:04:43.931Z,10.60
2019-02-12T09:07:41.304Z,11.60
2019-02-12T09:10:46.327Z,10.93
2019-02-12T09:14:04.060Z,8.87
2019-02-12T09:17:04.162Z,10.07
2019-02-12T09:20:27.732Z,9.80
2019-02-12T09:23:43.934Z,7.57
2019-02-12T09:26:39.442Z,10.07
2019-02-12T09:30:06.888Z,5.80
2019-02-12T09:33:12.599Z,11.27
2019-02-12T09:36:43.163Z,9.87
2019-02-12T09:39:54.300Z,16.37
2019-02-12T09:43:09.202Z,8.37
2019-02-12T09:46:30.841Z,7.67
2019-02-12T09:49:46.222Z,9.37
2019-02-12T09:52:57.985Z,6.10
2019-02-12T09:55:43.241Z,11.57
2019-02-12T09:58:47.795Z,12.00
2019-02-12T10:01:26.235Z,9.67
2019-02-12T10:04:35.848Z,11.07
2019-02-12T10:07:45.300Z,11.23
2019-02-12T10:10:56.533Z,6.20
2019-02-12T10:13:48.071Z,8.53
2019-02-12T10:17:04.080Z,6.60
2019-02-12T10:20:16.670Z,6.70
2019-02-12T10:23:13.737Z,13.10
2019-02-12T10:25:53.981Z,9.80
2019-02-12T10:29:05.993Z,11.47
2019-02-12T10:31:42.488Z,10.23
2019-02-12T10:34:13.475Z,6.73
2019-02-12T10:36:41.367Z,5.57
2019-02-12T10:39:11.877Z,10.43
2019-02-12T10:41:39.803Z,5.53
2019-02-12T10:44:10.397Z,7.17
2019-02-12T10:46:38.782Z,8.60
2019-02-12T10:49:06.492Z,7.40
2019-02-12T10:51:36.212Z,5.83
2019-02-12T10:54:06.825Z,10.30
2019-02-12T10:56:42.986Z,9.33
2019-02-12T10:59:08.508Z,5.97
2019-02-12T11:01:39.286Z,7.27
2019-02-12T11:04:09.575Z,7.10
2019-02-12T11:06:37.256Z,7.90
2019-02-12T11:09:05.204Z,10.37
2019-02-12T11:11:33.642Z,7.03
2019-02-12T11:14:02.673Z,7.40
2019-02-12T11:16:30.456Z,6.30
2019-02-12T11:18:58.579Z,4.30
2019-02-12T11:21:30.344Z,10.43
2019-02-12T11:24:02.580Z,5.73
2019-02-12T11:26:31.520Z,3.80
2019-02-12T11:28:59.499Z,7.37
2019-02-12T11:31:29.583Z,11.97
2019-02-12T11:33:57.577Z,6.30
2019-02-12T11:36:31.359Z,6.93
2019-02-12T11:39:01.708Z,8.53
2019-02-12T11:41:29.395Z,9.23
2019-02-12T11:43:57.095Z,10.13
2019-02-12T11:46:32.765Z,5.43
2019-02-12T11:49:00.892Z,10.87
2019-02-12T11:51:28.803Z,7.80
2019-02-12T11:53:56.636Z,9.17
2019-02-12T11:56:31.854Z,9.97
2019-02-12T11:58:59.783Z,8.73
2019-02-12T12:01:29.771Z,5.93
2019-02-12T12:03:58.791Z,7.67
2019-02-12T12:06:28.275Z,8.47
2019-02-12T12:08:56.185Z,6.23
2019-02-12T12:11:24.165Z,7.20
2019-02-12T12:13:52.247Z,7.37
2019-02-12T12:16:20.329Z,9.27
2019-02-12T12:18:48.541Z,10.23
2019-02-12T12:21:19.081Z,6.77
2019-02-12T12:23:46.971Z,7.57
2019-02-12T12:26:15.775Z,6.10
2019-02-12T12:28:43.511Z,6.97
2019-02-12T12:31:13.669Z,7.40
2019-02-12T12:33:41.664Z,11.23
2019-02-12T12:36:12.747Z,10.13
2019-02-12T12:38:40.529Z,11.93
2019-02-12T12:41:10.780Z,8.70
2019-02-12T12:43:38.938Z,7.30
2019-02-12T12:46:07.502Z,9.33
2019-02-12T12:48:35.335Z,10.83
2019-02-12T12:51:03.399Z,6.20
2019-02-12T12:53:31.545Z,6.73
2019-02-12T12:55:59.434Z,7.23
2019-02-12T12:58:31.208Z,10.17
2019-02-12T13:00:58.929Z,16.20
2019-02-12T13:03:36.055Z,10.07
2019-02-12T13:06:05.203Z,7.90
2019-02-12T13:08:33.267Z,10.60
2019-02-12T13:11:00.934Z,6.63
2019-02-12T13:13:28.634Z,8.33
2019-02-12T13:15:57.077Z,14.13
2019-02-12T13:18:25.107Z,12.77
2019-02-12T13:20:52.871Z,7.50
2019-02-12T13:23:28.289Z,8.23
2019-02-12T13:25:55.972Z,8.80
2019-02-12T13:28:23.895Z,10.33
2019-02-12T13:30:51.634Z,11.87
2019-02-12T13:33:19.409Z,10.37
2019-02-12T13:35:47.480Z,7.77
2019-02-12T13:38:15.622Z,8.20
2019-02-12T13:40:46.193Z,7.70
2019-02-12T13:43:15.246Z,8.27
2019-02-12T13:45:46.083Z,7.40
2019-02-12T13:48:14.623Z,13.53
2019-02-12T13:51:05.703Z,13.60
2019-02-12T13:53:34.283Z,8.37
2019-02-12T13:56:02.024Z,7.30
2019-02-12T13:58:29.766Z,9.10
2019-02-12T14:00:57.765Z,9.57
2019-02-12T14:03:27.201Z,11.63
2019-02-12T14:05:55.135Z,7.60
2019-02-12T14:08:23.569Z,11.57
2019-02-12T14:10:54.390Z,11.73
2019-02-12T14:13:24.558Z,9.73
2019-02-12T14:15:59.662Z,11.77
2019-02-12T14:18:27.458Z,8.47
2019-02-12T14:20:55.362Z,10.00
2019-02-12T14:23:23.662Z,9.67
2019-02-12T14:25:51.490Z,8.80
2019-02-12T14:28:28.947Z,13.33
2019-02-12T14:30:59.512Z,9.63
2019-02-12T14:33:28.101Z,10.20
2019-02-12T14:35:56.099Z,9.20
2019-02-12T14:38:26.727Z,12.03
2019-02-12T14:40:56.420Z,12.37
2019-02-12T14:43:43.693Z,9.10
2019-02-12T14:46:14.645Z,5.50
2019-02-12T14:48:45.708Z,11.70
2019-02-12T14:51:22.340Z,14.30
2019-02-12T14:53:50.138Z,9.37
2019-02-12T14:56:17.798Z,9.27
2019-02-12T14:58:45.724Z,11.00
2019-02-12T15:01:20.723Z,14.53
2019-02-12T15:03:48.682Z,8.10
2019-02-12T15:06:17.993Z,12.13
2019-02-12T15:08:45.963Z,8.47
2019-02-12T15:11:14.736Z,13.67
2019-02-12T15:13:42.445Z,12.00
2019-02-12T15:16:16.598Z,11.70
2019-02-12T15:18:50.548Z,9.83
2019-02-12T15:21:21.601Z,9.77
2019-02-12T15:23:52.299Z,11.47
2019-02-12T15:26:19.966Z,10.80
2019-02-12T15:28:51.123Z,10.10
2019-02-12T15:31:19.278Z,25.93
2019-02-12T15:33:47.383Z,11.63
2019-02-12T15:36:15.297Z,14.30
2019-02-12T15:38:45.253Z,16.20
2019-02-12T15:41:16.705Z,19.10
2019-02-12T15:43:46.766Z,9.73
2019-02-12T15:46:14.870Z,16.30
2019-02-12T15:48:42.786Z,12.40
2019-02-12T15:51:11.630Z,16.23
2019-02-12T15:53:42.531Z,12.07
2019-02-12T15:56:10.418Z,10.83
2019-02-12T15:58:41.563Z,14.40
2019-02-12T16:01:09.379Z,13.47
2019-02-12T16:03:38.546Z,13.73
2019-02-12T16:06:09.166Z,14.60
2019-02-12T16:08:36.895Z,14.80
2019-02-12T16:11:07.264Z,18.47
2019-02-12T16:13:43.047Z,12.10
2019-02-12T16:16:11.458Z,11.47
2019-02-12T16:18:39.187Z,15.03
2019-02-12T16:21:07.148Z,12.13
2019-02-12T16:23:34.861Z,11.37
2019-02-12T16:26:02.721Z,16.27
2019-02-12T16:28:30.679Z,13.30
2019-02-12T16:31:05.257Z,20.30
2019-02-12T16:33:34.879Z,18.40
2019-02-12T16:36:02.646Z,16.63
2019-02-12T16:38:30.376Z,15.57
2019-02-12T16:40:59.381Z,18.33
2019-02-12T16:43:29.769Z,19.00
2019-02-12T16:46:03.787Z,17.77
2019-02-12T16:48:33.122Z,20.43
2019-02-12T16:51:01.147Z,17.80
2019-02-12T16:53:31.161Z,20.53
2019-02-12T16:56:08.107Z,15.47
2019-02-12T16:58:34.443Z,14.93
2019-02-12T17:01:05.427Z,19.43
2019-02-12T17:03:39.851Z,17.13
2019-02-12T17:06:08.429Z,17.87
2019-02-12T17:08:41.953Z,19.93
2019-02-12T17:11:09.656Z,16.67
2019-02-12T17:13:40.322Z,19.43
2019-02-12T17:16:08.523Z,16.87
2019-02-12T17:18:40.267Z,17.80
2019-02-12T17:21:08.334Z,16.77
2019-02-12T17:23:36.236Z,20.40
2019-02-12T17:26:06.356Z,14.80
2019-02-12T17:28:39.831Z,16.57
2019-02-12T17:31:07.655Z,14.70
2019-02-12T17:33:37.823Z,15.97
2019-02-12T17:36:06.267Z,18.13
2019-02-12T17:38:35.808Z,13.23
2019-02-12T17:41:07.091Z,15.30
2019-02-12T17:43:35.298Z,16.77
2019-02-12T17:46:05.846Z,12.50
2019-02-12T17:48:33.527Z,15.53
2019-02-12T17:51:02.948Z,21.50
2019-02-12T17:53:32.669Z,17.47
2019-02-12T17:56:00.867Z,16.57
2019-02-12T17:58:29.360Z,21.10
2019-02-12T18:00:56.968Z,22.17
2019-02-12T18:03:24.895Z,21.47
2019-02-12T18:05:58.254Z,18.37
2019-02-12T18:08:29.906Z,34.80
2019-02-12T18:10:59.555Z,17.67
2019-02-12T18:13:27.256Z,17.40
2019-02-12T18:16:00.072Z,21.23
2019-02-12T18:18:31.525Z,15.63
2019-02-12T18:21:03.485Z,18.87
2019-02-12T18:23:31.444Z,21.87
2019-02-12T18:25:59.473Z,29.17
2019-02-12T18:28:30.541Z,18.23
2019-02-12T18:31:05.832Z,22.00
2019-02-12T18:33:36.711Z,19.37
2019-02-12T18:36:07.508Z,22.47
2019-02-12T18:38:41.087Z,17.50
2019-02-12T18:41:13.610Z,19.37
2019-02-12T18:43:44.730Z,22.63
2019-02-12T18:46:12.338Z,20.67
2019-02-12T18:48:43.331Z,21.27
2019-02-12T18:51:13.708Z,21.33
2019-02-12T18:53:41.430Z,24.73
2019-02-12T18:56:19.591Z,24.10
2019-02-12T18:58:58.347Z,19.37
2019-02-12T19:01:28.645Z,23.97
2019-02-12T19:03:58.361Z,21.57
2019-02-12T19:06:26.381Z,13.60
2019-02-12T19:08:54.356Z,20.33
2019-02-12T19:11:25.088Z,14.97
2019-02-12T19:13:55.640Z,17.27
2019-02-12T19:16:26.654Z,19.43
2019-02-12T19:19:01.236Z,19.57
2019-02-12T19:21:55.147Z,17.90
2019-02-12T19:24:25.485Z,16.20
2019-02-12T19:27:09.105Z,19.17
2019-02-12T19:29:47.988Z,18.77
2019-02-12T19:32:16.193Z,18.23
2019-02-12T19:36:37.285Z,20.13
2019-02-12T19:37:31.600Z,17.60
2019-02-12T19:40:02.271Z,15.67
2019-02-12T19:42:30.714Z,23.57
2019-02-12T19:44:59.286Z,14.27
2019-02-12T19:47:28.611Z,19.40
2019-02-12T19:49:56.887Z,14.40
2019-02-12T19:52:33.787Z,20.27
2019-02-12T19:55:11.187Z,24.37
2019-02-12T19:57:39.080Z,17.07
2019-02-12T20:00:10.292Z,16.83
2019-02-12T20:02:39.795Z,17.40
2019-02-12T20:05:11.567Z,33.67
2019-02-12T20:07:39.817Z,22.13
2019-02-12T20:10:09.800Z,18.37
2019-02-12T20:12:41.330Z,16.57
2019-02-12T20:15:13.856Z,18.07
2019-02-12T20:17:41.715Z,22.63
2019-02-12T20:20:12.878Z,20.50
2019-02-12T20:22:45.142Z,22.40
2019-02-12T20:25:11.232Z,20.20
2019-02-12T20:27:46.394Z,19.60
2019-02-12T20:30:16.879Z,18.23
2019-02-12T20:33:05.578Z,14.93
2019-02-12T20:35:38.503Z,19.83
2019-02-12T20:38:06.258Z,17.70
2019-02-12T20:40:47.270Z,25.27
2019-02-12T20:43:15.095Z,31.63
2019-02-12T20:45:51.212Z,21.33
2019-02-12T20:48:24.680Z,15.83
2019-02-12T20:51:01.186Z,20.17
2019-02-12T20:53:29.363Z,19.87
2019-02-12T20:56:13.675Z,16.97
2019-02-12T20:58:50.810Z,14.77
2019-02-12T21:01:21.665Z,13.93
2019-02-12T21:03:49.620Z,11.07
2019-02-12T21:06:20.814Z,15.23
2019-02-12T21:08:52.535Z,12.90
2019-02-12T21:11:32.878Z,12.07
2019-02-12T21:14:01.861Z,14.70
2019-02-12T21:16:37.759Z,16.63
2019-02-12T21:19:07.632Z,12.93
2019-02-12T21:21:37.384Z,12.53
2019-02-12T21:24:44.515Z,13.57
2019-02-12T21:30:53.213Z,13.93
2019-02-12T21:33:35.430Z,13.90
2019-02-12T21:36:41.288Z,15.20
2019-02-12T21:39:19.001Z,14.53
2019-02-12T21:41:50.714Z,13.77
2019-02-12T21:44:21.221Z,10.37
2019-02-12T21:46:53.008Z,11.47
2019-02-12T21:49:26.877Z,10.40
2019-02-12T21:51:56.639Z,9.83
2019-02-12T21:54:31.026Z,11.57
2019-02-12T21:57:03.680Z,8.20
2019-02-12T21:59:35.513Z,13.73
2019-02-12T22:02:06.326Z,9.93
2019-02-12T22:04:41.532Z,12.30
2019-02-12T22:07:14.694Z,11.30
2019-02-12T22:09:48.742Z,7.70
2019-02-12T22:13:02.733Z,12.30
2019-02-12T22:15:36.087Z,12.90
2019-02-12T22:18:04.387Z,11.10
2019-02-12T22:20:34.149Z,10.87
2019-02-12T22:23:02.528Z,14.20
2019-02-12T22:25:30.524Z,10.70
2019-02-12T22:27:59.903Z,13.27
2019-02-12T22:30:33.523Z,14.33
2019-02-12T22:33:02.862Z,12.80
2019-02-12T22:35:31.756Z,13.10
2019-02-12T22:38:00.952Z,15.50
2019-02-12T22:40:33.159Z,15.80
2019-02-12T22:43:01.954Z,11.43
2019-02-12T22:45:32.394Z,15.67
2019-02-12T22:48:03.744Z,9.63
2019-02-12T22:50:32.720Z,11.73
2019-02-12T22:53:08.167Z,16.47
2019-02-12T22:55:41.683Z,9.20
2019-02-12T22:58:10.283Z,10.03
2019-02-12T23:00:51.303Z,8.77
2019-02-12T23:03:21.588Z,10.90
2019-02-12T23:05:51.202Z,9.20
2019-02-12T23:08:22.154Z,11.33
2019-02-12T23:10:50.428Z,10.50
2019-02-12T23:13:18.607Z,9.03
2019-02-12T23:15:46.948Z,8.73
2019-02-12T23:18:17.369Z,9.73
2019-02-12T23:20:45.342Z,13.43
2019-02-12T23:23:14.120Z,8.87
2019-02-12T23:25:42.015Z,10.73
2019-02-12T23:28:10.266Z,9.40
2019-02-12T23:30:38.322Z,11.70
2019-02-12T23:33:05.961Z,10.87
2019-02-12T23:35:33.630Z,9.37
2019-02-12T23:38:02.405Z,12.77
2019-02-12T23:40:30.303Z,9.63
2019-02-12T23:42:58.450Z,16.77
2019-02-12T23:45:26.522Z,13.13
2019-02-12T23:47:57.152Z,14.20
2019-02-12T23:50:24.820Z,11.20
2019-02-12T23:52:52.766Z,10.73
2019-02-12T23:55:20.446Z,15.37
2019-02-12T23:57:51.126Z,19.80
